createdAt,value
2023-01-25T00:05:00.934Z,4.23
2023-01-25T00:10:07.094Z,4.90
2023-01-25T00:15:13.165Z,4.27
2023-01-25T00:20:19.056Z,4.20
2023-01-25T00:25:25.299Z,5.33
2023-01-25T00:30:30.758Z,4.67
2023-01-25T00:35:36.482Z,4.00
2023-01-25T00:40:41.855Z,4.73
2023-01-25T00:45:47.359Z,3.50
2023-01-25T00:50:52.849Z,5.17
2023-01-25T00:55:58.328Z,3.73
2023-01-25T01:01:04.071Z,3.60
2023-01-25T01:06:13.089Z,4.30
2023-01-25T01:11:18.675Z,3.50
2023-01-25T01:16:24.464Z,4.03
2023-01-25T01:21:30.220Z,4.47
2023-01-25T01:26:35.730Z,4.07
2023-01-25T01:31:41.203Z,4.80
2023-01-25T01:37:05.914Z,4.27
2023-01-25T01:42:12.232Z,5.07
2023-01-25T01:47:40.742Z,4.43
2023-01-25T01:52:47.859Z,4.33
2023-01-25T01:57:58.164Z,4.30
2023-01-25T02:03:04.464Z,4.67
2023-01-25T02:08:13.190Z,4.37
2023-01-25T02:13:20.972Z,4.30
2023-01-25T02:18:27.297Z,2.97
2023-01-25T02:23:52.482Z,3.10
2023-01-25T02:29:03.660Z,3.37
2023-01-25T02:34:09.522Z,2.90
2023-01-25T02:39:20.781Z,3.07
2023-01-25T02:44:31.689Z,3.07
2023-01-25T02:49:39.060Z,3.30
2023-01-25T02:54:45.878Z,3.63
2023-01-25T02:59:51.495Z,3.07
2023-01-25T03:04:57.138Z,3.43
2023-01-25T03:10:02.987Z,3.40
2023-01-25T03:15:10.547Z,3.40
2023-01-25T03:20:16.561Z,3.43
2023-01-25T03:25:22.398Z,3.13
2023-01-25T03:30:35.432Z,3.27
2023-01-25T03:35:41.007Z,3.50
2023-01-25T03:40:46.779Z,2.90
2023-01-25T03:45:57.231Z,3.37
2023-01-25T03:51:02.862Z,3.50
2023-01-25T03:56:14.758Z,3.33
2023-01-25T04:01:22.109Z,3.40
2023-01-25T04:06:27.923Z,3.00
2023-01-25T04:11:33.709Z,4.20
2023-01-25T04:16:39.485Z,3.30
2023-01-25T04:21:49.331Z,4.07
2023-01-25T04:26:55.413Z,3.07
2023-01-25T04:32:01.929Z,3.33
2023-01-25T04:37:08.019Z,3.73
2023-01-25T04:42:15.186Z,4.03
2023-01-25T04:47:22.380Z,3.57
2023-01-25T04:52:27.759Z,3.90
2023-01-25T04:57:33.208Z,4.23
2023-01-25T05:02:39.888Z,4.10
2023-01-25T05:07:45.749Z,3.93
2023-01-25T05:12:51.464Z,3.47
2023-01-25T05:17:56.985Z,3.33
2023-01-25T05:23:02.908Z,4.00
2023-01-25T05:28:09.195Z,4.43
2023-01-25T05:33:31.433Z,3.77
2023-01-25T05:38:37.174Z,4.07
2023-01-25T05:43:43.191Z,3.80
2023-01-25T05:48:49.588Z,4.30
2023-01-25T05:53:58.315Z,5.03
2023-01-25T05:59:04.065Z,4.00
2023-01-25T06:04:10.935Z,4.07
2023-01-25T06:09:16.622Z,3.77
2023-01-25T06:14:24.027Z,4.00
2023-01-25T06:19:30.741Z,4.60
2023-01-25T06:24:47.037Z,4.00
2023-01-25T06:29:52.415Z,4.03
2023-01-25T06:34:57.858Z,4.20
2023-01-25T06:40:03.512Z,3.60
2023-01-25T06:45:10.407Z,4.50
2023-01-25T06:50:16.751Z,4.23
2023-01-25T06:55:23.265Z,4.17
2023-01-25T07:00:28.786Z,4.60
2023-01-25T07:05:34.704Z,5.17
2023-01-25T07:10:40.287Z,4.70
2023-01-25T07:15:45.700Z,3.83
2023-01-25T07:20:51.545Z,4.37
2023-01-25T07:25:58.280Z,4.77
2023-01-25T07:31:10.230Z,5.70
2023-01-25T07:36:15.927Z,4.23
2023-01-25T07:41:21.728Z,3.77
2023-01-25T07:46:29.146Z,3.80
2023-01-25T07:51:34.886Z,4.73
2023-01-25T07:56:40.976Z,4.83
2023-01-25T08:01:46.614Z,4.13
2023-01-25T08:06:52.098Z,4.53
2023-01-25T08:11:57.476Z,4.67
2023-01-25T08:17:02.997Z,5.03
2023-01-25T08:22:10.086Z,5.17
2023-01-25T08:27:15.529Z,4.77
2023-01-25T08:32:21.022Z,4.47
2023-01-25T08:37:28.060Z,4.57
2023-01-25T08:42:33.508Z,4.27
2023-01-25T08:47:39.059Z,5.97
2023-01-25T08:52:44.501Z,4.73
2023-01-25T08:57:50.024Z,5.67
2023-01-25T09:02:55.479Z,5.47
2023-01-25T09:08:01.006Z,6.13
2023-01-25T09:13:08.657Z,5.80
2023-01-25T09:18:14.881Z,5.00
2023-01-25T09:23:21.894Z,6.27
2023-01-25T09:28:30.071Z,6.87
2023-01-25T09:33:37.649Z,6.30
2023-01-25T09:38:43.042Z,6.37
2023-01-25T09:44:14.591Z,6.07
2023-01-25T09:49:26.149Z,5.13
2023-01-25T09:54:42.336Z,6.33
2023-01-25T09:59:44.022Z,5.93
2023-01-25T10:04:52.501Z,6.23
2023-01-25T10:10:07.419Z,5.77
2023-01-25T10:15:24.683Z,6.30
2023-01-25T10:20:35.883Z,6.33
2023-01-25T10:25:44.303Z,7.23
2023-01-25T10:31:04.996Z,8.00
2023-01-25T10:36:19.053Z,7.57
2023-01-25T10:41:30.302Z,6.80
2023-01-25T10:46:36.812Z,6.37
2023-01-25T10:51:42.293Z,6.87
2023-01-25T10:56:48.951Z,7.83
2023-01-25T11:01:54.769Z,7.23
2023-01-25T11:07:02.613Z,7.03
2023-01-25T11:12:20.509Z,7.60
2023-01-25T11:17:30.657Z,7.80
2023-01-25T11:22:36.415Z,6.53
2023-01-25T11:27:41.900Z,7.13
2023-01-25T11:32:47.429Z,8.47
2023-01-25T11:38:04.969Z,6.97
2023-01-25T11:43:38.535Z,6.53
2023-01-25T11:48:53.573Z,7.20
2023-01-25T11:54:02.449Z,7.17
2023-01-25T11:59:38.130Z,7.20
2023-01-25T12:05:16.264Z,6.80
2023-01-25T12:10:23.721Z,6.80
2023-01-25T12:15:38.154Z,7.27
2023-01-25T12:21:08.479Z,7.53
2023-01-25T12:26:32.024Z,8.33
2023-01-25T12:31:40.541Z,7.70
2023-01-25T12:36:49.237Z,8.20
2023-01-25T12:42:12.651Z,8.67
2023-01-25T12:47:39.245Z,8.53
2023-01-25T12:53:05.640Z,7.10
2023-01-25T12:58:18.264Z,7.87
2023-01-25T13:03:58.695Z,9.57
2023-01-25T13:09:20.466Z,8.53
2023-01-25T13:14:40.829Z,8.83
2023-01-25T13:19:46.351Z,8.63
2023-01-25T13:25:07.718Z,7.30
2023-01-25T13:30:34.840Z,9.10
2023-01-25T13:35:45.161Z,8.90
2023-01-25T13:41:07.306Z,9.73
2023-01-25T13:46:15.725Z,9.63
2023-01-25T13:51:21.833Z,8.23
2023-01-25T13:56:30.917Z,9.43
2023-01-25T14:01:38.025Z,10.07
2023-01-25T14:06:44.103Z,9.20
2023-01-25T14:11:58.709Z,9.53
2023-01-25T14:17:16.354Z,10.57
2023-01-25T14:22:27.195Z,9.47
2023-01-25T14:27:32.790Z,7.93
2023-01-25T14:32:38.363Z,9.17
2023-01-25T14:37:44.441Z,10.03
2023-01-25T14:42:51.261Z,9.67
2023-01-25T14:47:59.466Z,9.37
2023-01-25T14:53:18.843Z,9.33
2023-01-25T14:58:28.013Z,10.20
2023-01-25T15:03:33.713Z,10.90
2023-01-25T15:08:40.923Z,8.97
2023-01-25T15:13:46.957Z,10.27
2023-01-25T15:18:57.549Z,10.37
2023-01-25T15:24:07.141Z,10.73
2023-01-25T15:29:19.743Z,11.33
2023-01-25T15:34:32.807Z,13.90
2023-01-25T15:39:39.064Z,10.97
2023-01-25T15:44:44.554Z,10.70
2023-01-25T15:49:50.021Z,10.10
2023-01-25T15:55:01.395Z,10.63
2023-01-25T16:00:03.393Z,10.93
2023-01-25T16:05:09.659Z,11.17
2023-01-25T16:10:24.425Z,10.43
2023-01-25T16:15:29.970Z,10.37
2023-01-25T16:20:35.524Z,11.43
2023-01-25T16:25:43.520Z,11.67
2023-01-25T16:30:50.103Z,12.13
2023-01-25T16:36:07.322Z,11.30
2023-01-25T16:41:14.151Z,10.70
2023-01-25T16:46:24.505Z,11.40
2023-01-25T16:51:30.581Z,11.23
2023-01-25T16:56:36.122Z,10.73
2023-01-25T17:01:42.114Z,12.07
2023-01-25T17:06:50.798Z,11.43
2023-01-25T17:11:56.636Z,11.53
2023-01-25T17:17:02.310Z,12.60
2023-01-25T17:22:07.835Z,12.27
2023-01-25T17:27:15.010Z,12.50
2023-01-25T17:32:20.475Z,12.37
2023-01-25T17:37:26.022Z,11.47
2023-01-25T17:42:31.472Z,12.57
2023-01-25T17:47:36.867Z,12.00
2023-01-25T17:52:42.323Z,12.67
2023-01-25T17:57:47.957Z,11.33
2023-01-25T18:02:54.892Z,10.90
2023-01-25T18:08:00.407Z,11.43
2023-01-25T18:13:05.794Z,11.83
2023-01-25T18:18:11.197Z,10.37
2023-01-25T18:23:16.709Z,12.07
2023-01-25T18:28:22.180Z,13.67
2023-01-25T18:33:28.273Z,10.90
2023-01-25T18:38:34.001Z,10.77
2023-01-25T18:43:39.505Z,11.57
2023-01-25T18:48:46.611Z,14.73
2023-01-25T18:53:52.284Z,17.67
2023-01-25T18:58:58.463Z,16.93
2023-01-25T19:04:04.007Z,14.93
2023-01-25T19:09:09.556Z,14.47
2023-01-25T19:14:14.945Z,13.20
2023-01-25T19:19:22.070Z,12.00
2023-01-25T19:24:28.113Z,12.90
2023-01-25T19:29:33.695Z,13.13
2023-01-25T19:34:40.129Z,13.43
2023-01-25T19:39:45.794Z,11.57
2023-01-25T19:44:51.414Z,10.90
2023-01-25T19:49:57.149Z,11.07
2023-01-25T19:55:02.717Z,11.47
2023-01-25T20:00:09.453Z,11.47
2023-01-25T20:05:14.995Z,11.97
2023-01-25T20:10:20.533Z,10.70
2023-01-25T20:15:26.072Z,12.27
2023-01-25T20:20:31.645Z,12.43
2023-01-25T20:25:37.374Z,11.50
2023-01-25T20:30:42.984Z,11.13
2023-01-25T20:35:50.254Z,12.47
2023-01-25T20:41:01.286Z,11.37
2023-01-25T20:46:06.981Z,12.80
2023-01-25T20:51:14.602Z,12.77
2023-01-25T20:56:20.545Z,12.87
2023-01-25T21:01:32.882Z,14.67
2023-01-25T21:06:38.914Z,12.17
2023-01-25T21:11:44.580Z,15.78
2023-01-25T21:16:50.215Z,12.13
2023-01-25T21:21:55.712Z,13.00
2023-01-25T21:27:01.239Z,11.40
2023-01-25T21:32:07.227Z,11.27
2023-01-25T21:37:12.843Z,10.93
2023-01-25T21:42:18.316Z,11.07
2023-01-25T21:47:30.458Z,13.20
2023-01-25T21:52:31.092Z,11.63
2023-01-25T21:57:36.695Z,11.23
2023-01-25T22:02:42.463Z,10.20
2023-01-25T22:07:48.261Z,11.67
2023-01-25T22:12:53.747Z,11.17
2023-01-25T22:17:59.156Z,10.30
2023-01-25T22:23:04.626Z,10.97
2023-01-25T22:28:13.148Z,9.93
2023-01-25T22:33:20.339Z,10.50
2023-01-25T22:38:25.774Z,10.73
2023-01-25T22:43:31.599Z,7.70
2023-01-25T22:48:37.599Z,9.47
2023-01-25T22:53:43.588Z,10.00
2023-01-25T22:58:50.068Z,10.47
2023-01-25T23:03:57.061Z,10.20
2023-01-25T23:09:05.369Z,11.20
2023-01-25T23:14:31.087Z,9.13
2023-01-25T23:19:36.550Z,8.30
2023-01-25T23:24:43.436Z,9.23
2023-01-25T23:29:50.075Z,10.63
2023-01-25T23:34:55.605Z,10.73
2023-01-25T23:40:00.997Z,9.07
2023-01-25T23:45:08.563Z,10.53
2023-01-25T23:50:14.193Z,8.70
2023-01-25T23:55:19.573Z,10.63
